createdAt,value
2023-03-10T00:01:57.101Z,8.2
2023-03-10T00:07:34.578Z,8.1
2023-03-10T00:13:29.181Z,7.9
2023-03-10T00:19:22.544Z,7.8
2023-03-10T00:30:52.784Z,7.6
2023-03-10T00:36:31.162Z,7.5
2023-03-10T00:42:25.109Z,7.4
2023-03-10T00:48:02.983Z,7.3
2023-03-10T00:53:39.537Z,7.3
2023-03-10T00:59:16.660Z,7.2
2023-03-10T01:05:26.015Z,7.1
2023-03-10T01:11:18.972Z,7.1
2023-03-10T01:17:12.559Z,7.1
2023-03-10T01:22:49.938Z,7
2023-03-10T01:28:26.676Z,7
2023-03-10T01:34:05.107Z,6.9
2023-03-10T01:39:29.275Z,6.9
2023-03-10T01:45:21.469Z,6.9
2023-03-10T01:51:14.246Z,6.9
2023-03-10T01:57:07.748Z,6.9
2023-03-10T02:03:01.201Z,6.8
2023-03-10T02:08:23.205Z,6.9
2023-03-10T02:13:49.471Z,6.8
2023-03-10T02:19:26.979Z,6.8
2023-03-10T02:25:28.599Z,6.8
2023-03-10T02:31:32.784Z,6.8
2023-03-10T02:37:10.060Z,6.8
2023-03-10T02:42:48.060Z,6.8
2023-03-10T02:53:47.541Z,6.8
2023-03-10T02:59:40.663Z,6.8
2023-03-10T03:05:18.451Z,6.8
2023-03-10T03:10:39.420Z,6.9
2023-03-10T03:16:18.608Z,6.9
2023-03-10T03:22:11.965Z,6.9
2023-03-10T03:27:33.617Z,6.9
2023-03-10T03:33:29.942Z,7
2023-03-10T03:39:07.730Z,7
2023-03-10T03:45:00.790Z,7
2023-03-10T03:50:57.137Z,7
2023-03-10T03:56:50.009Z,7
2023-03-10T04:02:26.958Z,7
2023-03-10T04:08:04.985Z,7
2023-03-10T04:13:57.108Z,7
2023-03-10T04:20:00.808Z,7
2023-03-10T04:25:28.187Z,7.1
2023-03-10T04:31:06.860Z,7.1
2023-03-10T04:37:08.425Z,7
2023-03-10T04:42:45.134Z,7.1
2023-03-10T04:48:49.648Z,7
2023-03-10T04:54:10.549Z,7.1
2023-03-10T04:59:48.013Z,7
2023-03-10T05:05:52.333Z,7
2023-03-10T05:11:44.413Z,6.9
2023-03-10T05:17:36.756Z,6.9
2023-03-10T05:23:14.262Z,6.9
2023-03-10T05:28:37.189Z,6.9
2023-03-10T05:34:15.014Z,6.9
2023-03-10T05:39:52.271Z,7
2023-03-10T05:45:44.569Z,7.1
2023-03-10T05:51:40.057Z,7.3
2023-03-10T05:57:17.805Z,7.4
2023-03-10T06:02:54.508Z,7.8
2023-03-10T06:08:51.672Z,8.1
2023-03-10T06:14:44.865Z,8.6
2023-03-10T06:20:39.117Z,9.4
2023-03-10T06:26:31.928Z,10.9
2023-03-10T06:32:24.630Z,11.5
2023-03-10T06:38:02.101Z,12
2023-03-10T06:43:40.827Z,12.6
2023-03-10T06:49:20.269Z,13.3
2023-03-10T06:54:57.235Z,14.1
2023-03-10T07:00:18.840Z,14.6
2023-03-10T07:05:57.205Z,15.1
2023-03-10T07:11:36.136Z,15.6
2023-03-10T07:17:30.267Z,16.8
2023-03-10T07:23:08.124Z,18.6
2023-03-10T07:29:02.054Z,20.4
2023-03-10T07:34:55.126Z,21.8
2023-03-10T07:40:48.421Z,22.6
2023-03-10T07:46:42.482Z,23.9
2023-03-10T07:52:19.122Z,24.9
2023-03-10T07:57:57.389Z,24.8
2023-03-10T08:03:50.275Z,31.4
2023-03-10T08:09:43.833Z,31.1
2023-03-10T08:15:38.124Z,29.9
2023-03-10T08:21:16.164Z,29.3
2023-03-10T08:26:38.406Z,28.9
2023-03-10T08:32:50.981Z,28.8
2023-03-10T08:38:32.947Z,30.1
2023-03-10T08:44:32.153Z,29.1
2023-03-10T08:50:13.018Z,36.1
2023-03-10T08:55:54.114Z,36.2
2023-03-10T09:01:47.546Z,36.9
2023-03-10T09:07:44.174Z,37.7
2023-03-10T09:13:51.483Z,37.4
2023-03-10T09:19:46.902Z,37.1
2023-03-10T09:25:40.961Z,36.8
2023-03-10T09:31:46.332Z,36.5
2023-03-10T09:37:36.571Z,36.4
2023-03-10T09:43:47.226Z,36.1
2023-03-10T09:49:39.386Z,35.9
2023-03-10T09:55:38.325Z,35.8
2023-03-10T10:01:35.008Z,35.4
2023-03-10T10:07:39.069Z,35.1
2023-03-10T10:13:42.361Z,34.9
2023-03-10T10:20:37.372Z,34.7
2023-03-10T10:26:40.490Z,34.4
2023-03-10T10:32:34.107Z,34.1
2023-03-10T10:38:35.594Z,33.8
2023-03-10T10:44:16.140Z,33.5
2023-03-10T10:49:54.311Z,33.3
2023-03-10T10:55:47.381Z,32.9
2023-03-10T11:01:41.158Z,32.7
2023-03-10T11:07:34.318Z,32.4
2023-03-10T11:13:12.443Z,32.1
2023-03-10T11:18:51.483Z,31.8
2023-03-10T11:24:44.280Z,31.4
2023-03-10T11:30:37.476Z,31.1
2023-03-10T11:36:30.980Z,30.8
2023-03-10T11:42:16.631Z,30.4
2023-03-10T11:48:09.219Z,30.1
2023-03-10T11:54:00.205Z,29.8
2023-03-10T11:59:53.995Z,29.5
2023-03-10T12:05:48.050Z,29.2
2023-03-10T12:11:25.796Z,29
2023-03-10T12:17:20.064Z,28.7
2023-03-10T12:23:12.454Z,28.6
2023-03-10T12:29:04.521Z,28.5
2023-03-10T12:34:57.924Z,28.3
2023-03-10T12:40:36.465Z,28.1
2023-03-10T12:46:29.721Z,27.9
2023-03-10T12:52:23.664Z,27.8
2023-03-10T12:58:17.530Z,27.6
2023-03-10T13:04:02.788Z,27.4
2023-03-10T13:09:39.418Z,27.4
2023-03-10T13:15:18.022Z,27.2
2023-03-10T13:21:10.751Z,27
2023-03-10T13:26:32.611Z,26.8
2023-03-10T13:32:12.807Z,26.6
2023-03-10T13:38:04.328Z,26.6
2023-03-10T13:43:54.577Z,26.6
2023-03-10T13:49:47.867Z,26.6
2023-03-10T13:55:38.884Z,26.9
2023-03-10T14:01:31.362Z,26.8
2023-03-10T14:07:28.211Z,26.8
2023-03-10T14:13:21.543Z,27.1
2023-03-10T14:18:43.413Z,28.3
2023-03-10T14:24:36.750Z,28
2023-03-10T14:35:25.749Z,27.3
2023-03-10T14:41:03.844Z,27
2023-03-10T14:46:57.607Z,26.7
2023-03-10T14:53:03.008Z,26.3
2023-03-10T14:58:56.334Z,25.4
2023-03-10T15:04:50.544Z,24
2023-03-10T15:10:49.629Z,22.6
2023-03-10T15:16:55.886Z,21.2
2023-03-10T15:22:33.575Z,20.1
2023-03-10T15:28:25.310Z,19.1
2023-03-10T15:34:20.591Z,18.2
2023-03-10T15:40:26.115Z,17.4
2023-03-10T15:46:20.114Z,16.8
2023-03-10T15:52:13.451Z,16.3
2023-03-10T15:58:06.068Z,15.8
2023-03-10T16:03:58.289Z,15.3
2023-03-10T16:09:51.633Z,14.9
2023-03-10T16:15:44.737Z,14.5
2023-03-10T16:21:22.339Z,14.1
2023-03-10T16:27:01.347Z,13.8
2023-03-10T16:32:53.517Z,13.4
2023-03-10T16:38:46.300Z,13.1
2023-03-10T16:44:40.216Z,12.8
2023-03-10T16:49:45.761Z,12.5
2023-03-10T17:00:13.962Z,12
2023-03-10T17:05:53.560Z,11.8
2023-03-10T17:11:56.183Z,11.5
2023-03-10T17:17:49.776Z,11.4
2023-03-10T17:23:27.538Z,11.2
2023-03-10T17:29:22.343Z,11
2023-03-10T17:35:16.223Z,10.8
2023-03-10T17:41:08.207Z,10.7
2023-03-10T17:47:14.696Z,10.6
2023-03-10T17:53:08.294Z,10.4
2023-03-10T17:58:45.087Z,10.3
2023-03-10T18:04:41.635Z,10.2
2023-03-10T18:10:34.308Z,10.1
2023-03-10T18:16:26.022Z,10
2023-03-10T18:22:18.416Z,9.9
2023-03-10T18:27:55.978Z,9.8
2023-03-10T18:33:48.761Z,9.6
2023-03-10T18:39:42.680Z,9.6
2023-03-10T18:45:35.522Z,9.4
2023-03-10T18:51:12.012Z,9.3
2023-03-10T18:57:04.874Z,9.2
2023-03-10T19:02:42.683Z,9.1
2023-03-10T19:08:34.982Z,9.1
2023-03-10T19:14:29.191Z,8.9
2023-03-10T19:20:22.605Z,8.9
2023-03-10T19:26:15.767Z,8.8
2023-03-10T19:32:08.706Z,8.6
2023-03-10T19:37:47.673Z,8.6
2023-03-10T19:43:08.735Z,8.5
2023-03-10T19:49:02.423Z,8.4
2023-03-10T19:54:55.648Z,8.4
2023-03-10T20:00:32.939Z,8.4
2023-03-10T20:06:11.958Z,8.3
2023-03-10T20:11:49.404Z,8.3
2023-03-10T20:17:41.655Z,8.3
2023-03-10T20:23:33.922Z,8.3
2023-03-10T20:28:55.810Z,8.2
2023-03-10T20:34:32.962Z,8.2
2023-03-10T20:40:26.198Z,8.1
2023-03-10T20:46:04.878Z,8.1
2023-03-10T20:51:57.796Z,8.1
2023-03-10T20:57:50.524Z,8.1
2023-03-10T21:03:44.103Z,8
2023-03-10T21:09:21.778Z,8
2023-03-10T21:14:58.628Z,8
2023-03-10T21:20:51.927Z,8
2023-03-10T21:25:44.841Z,8
2023-03-10T21:31:38.078Z,7.9
2023-03-10T21:37:30.718Z,7.9
2023-03-10T21:43:23.135Z,7.9
2023-03-10T21:49:16.010Z,7.9
2023-03-10T21:55:10.020Z,7.9
2023-03-10T22:00:46.537Z,8
2023-03-10T22:06:23.960Z,8
2023-03-10T22:12:16.334Z,8
2023-03-10T22:23:45.125Z,8.1
2023-03-10T22:29:38.013Z,8.1
2023-03-10T22:35:30.575Z,8.1
2023-03-10T22:41:07.447Z,8.1
2023-03-10T22:46:29.530Z,8.1
2023-03-10T22:52:07.344Z,8.1
2023-03-10T22:57:59.834Z,8.1
2023-03-10T23:03:07.557Z,8.1
2023-03-10T23:14:35.950Z,8.1
2023-03-10T23:20:43.125Z,8.1
2023-03-10T23:26:20.270Z,8.2
2023-03-10T23:32:13.276Z,8.2
2023-03-10T23:37:51.090Z,8.2
2023-03-10T23:42:56.842Z,8.2
2023-03-10T23:48:35.211Z,8.2
2023-03-10T23:54:13.490Z,8.2
